createdAt,value
2023-02-11T00:00:00.957Z,103175.38
2023-02-11T00:00:53.614Z,103181.16
2023-02-11T00:01:45.289Z,103176.66
2023-02-11T00:02:37.090Z,103176.41
2023-02-11T00:03:28.640Z,103170.06
2023-02-11T00:04:20.113Z,103170.56
2023-02-11T00:05:11.698Z,103169.53
2023-02-11T00:06:09.017Z,103167.44
2023-02-11T00:07:00.651Z,103161.88
2023-02-11T00:07:52.145Z,103162.38
2023-02-11T00:08:43.708Z,103167.13
2023-02-11T00:09:35.382Z,103169.44
2023-02-11T00:10:26.801Z,103170.06
2023-02-11T00:11:20.514Z,103161.56
2023-02-11T00:12:12.204Z,103162.06
2023-02-11T00:13:03.663Z,103161.03
2023-02-11T00:13:55.056Z,103163.44
2023-02-11T00:14:46.570Z,103167.44
2023-02-11T00:15:38.034Z,103161.75
2023-02-11T00:16:31.128Z,103156.94
2023-02-11T00:17:23.320Z,103159.22
2023-02-11T00:18:15.037Z,103154.41
2023-02-11T00:19:06.942Z,103152.50
2023-02-11T00:19:58.380Z,103162.50
2023-02-11T00:20:50.083Z,103166.25
2023-02-11T00:21:41.541Z,103163.56
2023-02-11T00:22:33.193Z,103155.66
2023-02-11T00:23:24.821Z,103157.53
2023-02-11T00:24:16.270Z,103165.13
2023-02-11T00:25:08.204Z,103160.75
2023-02-11T00:25:59.679Z,103159.72
2023-02-11T00:26:51.367Z,103162.19
2023-02-11T00:27:42.825Z,103153.41
2023-02-11T00:28:37.441Z,103158.44
2023-02-11T00:29:29.296Z,103153.06
2023-02-11T00:30:21.049Z,103149.72
2023-02-11T00:31:13.774Z,103152.91
2023-02-11T00:32:08.757Z,103145.56
2023-02-11T00:33:00.206Z,103145.31
2023-02-11T00:33:52.886Z,103152.38
2023-02-11T00:34:44.370Z,103144.03
2023-02-11T00:35:39.170Z,103154.94
2023-02-11T00:36:32.653Z,103148.75
2023-02-11T00:37:24.395Z,103153.03
2023-02-11T00:38:16.469Z,103152.66
2023-02-11T00:39:08.423Z,103152.31
2023-02-11T00:40:00.623Z,103149.09
2023-02-11T00:40:52.197Z,103146.03
2023-02-11T00:41:43.642Z,103142.28
2023-02-11T00:42:37.488Z,103151.69
2023-02-11T00:43:29.043Z,103142.00
2023-02-11T00:44:21.393Z,103145.88
2023-02-11T00:45:13.072Z,103145.00
2023-02-11T00:46:05.691Z,103137.28
2023-02-11T00:46:57.124Z,103139.97
2023-02-11T00:47:48.982Z,103144.75
2023-02-11T00:48:41.263Z,103141.28
2023-02-11T00:49:32.852Z,103134.31
2023-02-11T00:50:24.580Z,103139.06
2023-02-11T00:51:16.064Z,103133.78
2023-02-11T00:52:07.601Z,103128.50
2023-02-11T00:52:59.364Z,103129.28
2023-02-11T00:53:50.949Z,103120.13
2023-02-11T00:54:42.496Z,103124.78
2023-02-11T00:55:34.403Z,103127.63
2023-02-11T00:56:26.777Z,103130.09
2023-02-11T00:57:18.524Z,103128.72
2023-02-11T00:58:10.262Z,103124.22
2023-02-11T00:59:01.799Z,103126.03
2023-02-11T00:59:53.241Z,103127.72
2023-02-11T01:00:46.154Z,103125.91
2023-02-11T01:01:38.939Z,103131.06
2023-02-11T01:02:30.479Z,103125.50
2023-02-11T01:03:22.436Z,103127.56
2023-02-11T01:04:13.958Z,103123.19
2023-02-11T01:05:06.446Z,103124.38
2023-02-11T01:05:58.128Z,103127.47
2023-02-11T01:06:49.761Z,103119.84
2023-02-11T01:07:41.190Z,103122.34
2023-02-11T01:08:32.697Z,103124.91
2023-02-11T01:09:24.169Z,103135.22
2023-02-11T01:10:15.676Z,103136.69
2023-02-11T01:11:15.697Z,103128.59
2023-02-11T01:12:09.547Z,103133.47
2023-02-11T01:13:01.770Z,103139.00
2023-02-11T01:13:53.446Z,103131.94
2023-02-11T01:14:46.602Z,103138.34
2023-02-11T01:15:38.123Z,103143.09
2023-02-11T01:16:29.987Z,103134.97
2023-02-11T01:17:21.467Z,103143.31
2023-02-11T01:18:14.735Z,103142.28
2023-02-11T01:19:06.492Z,103137.50
2023-02-11T01:19:57.953Z,103135.72
2023-02-11T01:20:51.841Z,103145.75
2023-02-11T01:21:43.647Z,103137.09
2023-02-11T01:22:39.378Z,103142.50
2023-02-11T01:23:31.043Z,103151.22
2023-02-11T01:24:22.522Z,103137.44
2023-02-11T01:25:14.997Z,103131.63
2023-02-11T01:26:06.715Z,103133.66
2023-02-11T01:26:58.471Z,103134.44
2023-02-11T01:27:49.989Z,103138.22
2023-02-11T01:28:41.588Z,103137.84
2023-02-11T01:29:33.209Z,103126.75
2023-02-11T01:30:24.927Z,103134.81
2023-02-11T01:31:16.557Z,103134.66
2023-02-11T01:32:08.075Z,103132.72
2023-02-11T01:32:59.639Z,103142.88
2023-02-11T01:33:51.140Z,103133.84
2023-02-11T01:34:42.569Z,103133.72
2023-02-11T01:35:34.263Z,103137.94
2023-02-11T01:36:25.930Z,103134.59
2023-02-11T01:37:17.480Z,103130.28
2023-02-11T01:38:16.668Z,103136.34
2023-02-11T01:39:08.712Z,103139.94
2023-02-11T01:40:02.443Z,103137.09
2023-02-11T01:41:06.519Z,103138.63
2023-02-11T01:41:57.939Z,103145.66
2023-02-11T01:42:51.156Z,103142.72
2023-02-11T01:43:47.573Z,103149.88
2023-02-11T01:44:40.109Z,103149.09
2023-02-11T01:45:47.128Z,103153.69
2023-02-11T01:46:38.679Z,103161.91
2023-02-11T01:47:30.161Z,103156.47
2023-02-11T01:48:30.849Z,103154.56
2023-02-11T01:49:29.455Z,103160.75
2023-02-11T01:50:20.942Z,103158.78
2023-02-11T01:51:27.328Z,103165.94
2023-02-11T01:52:35.141Z,103166.72
2023-02-11T01:53:47.425Z,103170.66
2023-02-11T01:55:10.029Z,103165.94
2023-02-11T01:56:22.364Z,103158.22
2023-02-11T01:57:24.999Z,103151.00
2023-02-11T01:58:17.023Z,103145.56
2023-02-11T01:59:17.345Z,103140.16
2023-02-11T02:00:22.099Z,103139.88
2023-02-11T02:01:21.300Z,103140.16
2023-02-11T02:02:17.411Z,103134.09
2023-02-11T02:03:20.363Z,103135.28
2023-02-11T02:04:17.667Z,103140.19
2023-02-11T02:05:52.785Z,103137.16
2023-02-11T02:06:55.952Z,103148.00
2023-02-11T02:07:55.716Z,103143.88
2023-02-11T02:09:00.135Z,103141.59
2023-02-11T02:10:01.641Z,103143.69
2023-02-11T02:10:56.363Z,103143.97
2023-02-11T02:11:48.834Z,103144.22
2023-02-11T02:12:40.550Z,103142.69
2023-02-11T02:13:34.367Z,103143.09
2023-02-11T02:14:26.782Z,103143.22
2023-02-11T02:15:24.701Z,103139.25
2023-02-11T02:16:19.593Z,103145.44
2023-02-11T02:17:27.466Z,103137.97
2023-02-11T02:18:33.914Z,103143.88
2023-02-11T02:19:59.449Z,103138.84
2023-02-11T02:21:22.058Z,103139.78
2023-02-11T02:22:42.487Z,103147.16
2023-02-11T02:24:07.949Z,103155.66
2023-02-11T02:25:10.238Z,103145.19
2023-02-11T02:26:27.101Z,103154.38
2023-02-11T02:27:40.300Z,103138.75
2023-02-11T02:29:08.566Z,103131.69
2023-02-11T02:30:18.899Z,103128.06
2023-02-11T02:31:26.319Z,103129.22
2023-02-11T02:32:37.493Z,103118.78
2023-02-11T02:33:47.237Z,103119.44
2023-02-11T02:34:54.061Z,103116.34
2023-02-11T02:36:05.985Z,103117.63
2023-02-11T02:37:11.960Z,103123.16
2023-02-11T02:38:14.045Z,103124.06
2023-02-11T02:39:26.704Z,103125.38
2023-02-11T02:40:42.788Z,103120.97
2023-02-11T02:41:37.047Z,103118.53
2023-02-11T02:42:28.743Z,103129.09
2023-02-11T02:43:22.682Z,103124.97
2023-02-11T02:44:14.238Z,103126.63
2023-02-11T02:45:08.135Z,103119.91
2023-02-11T02:46:19.529Z,103113.38
2023-02-11T02:47:11.197Z,103121.22
2023-02-11T02:48:03.328Z,103108.97
2023-02-11T02:48:56.998Z,103101.47
2023-02-11T02:49:48.507Z,103104.44
2023-02-11T02:50:40.062Z,103095.81
2023-02-11T02:51:43.350Z,103092.84
2023-02-11T02:52:55.978Z,103092.06
2023-02-11T02:54:24.996Z,103099.81
2023-02-11T02:55:38.389Z,103098.53
2023-02-11T02:56:36.749Z,103087.59
2023-02-11T02:57:57.659Z,103086.25
2023-02-11T02:59:03.845Z,103088.22
2023-02-11T03:00:19.587Z,103082.13
2023-02-11T03:01:50.054Z,103079.19
2023-02-11T03:03:04.582Z,103074.81
2023-02-11T03:04:25.042Z,103075.69
2023-02-11T03:05:34.163Z,103079.66
2023-02-11T03:06:31.416Z,103079.03
2023-02-11T03:07:39.939Z,103088.06
2023-02-11T03:08:46.679Z,103085.47
2023-02-11T03:09:48.326Z,103091.28
2023-02-11T03:10:49.977Z,103091.16
2023-02-11T03:11:41.978Z,103082.78
2023-02-11T03:12:37.205Z,103090.53
2023-02-11T03:13:36.909Z,103086.13
2023-02-11T03:14:32.357Z,103086.91
2023-02-11T03:15:28.408Z,103083.69
2023-02-11T03:16:26.246Z,103090.00
2023-02-11T03:17:19.636Z,103088.31
2023-02-11T03:18:16.982Z,103090.13
2023-02-11T03:19:15.645Z,103085.38
2023-02-11T03:20:12.883Z,103088.47
2023-02-11T03:21:07.769Z,103092.06
2023-02-11T03:21:59.795Z,103086.91
2023-02-11T03:23:02.476Z,103083.97
2023-02-11T03:23:58.002Z,103093.88
2023-02-11T03:24:49.681Z,103092.22
2023-02-11T03:25:56.203Z,103095.06
2023-02-11T03:26:54.169Z,103092.84
2023-02-11T03:28:08.086Z,103093.34
2023-02-11T03:29:23.916Z,103100.06
2023-02-11T03:30:19.223Z,103094.81
2023-02-11T03:31:16.087Z,103092.63
2023-02-11T03:32:38.753Z,103088.19
2023-02-11T03:33:50.887Z,103091.31
2023-02-11T03:35:14.914Z,103090.13
2023-02-11T03:36:15.138Z,103092.34
2023-02-11T03:37:24.559Z,103089.00
2023-02-11T03:38:29.457Z,103081.00
2023-02-11T03:39:29.480Z,103065.91
2023-02-11T03:40:29.566Z,103067.94
2023-02-11T03:41:24.491Z,103067.19
2023-02-11T03:42:17.596Z,103059.19
2023-02-11T03:43:17.471Z,103062.94
2023-02-11T03:44:14.756Z,103062.00
2023-02-11T03:45:12.395Z,103062.00
2023-02-11T03:46:06.091Z,103057.25
2023-02-11T03:46:59.638Z,103056.34
2023-02-11T03:48:04.035Z,103058.31
2023-02-11T03:49:02.867Z,103062.53
2023-02-11T03:49:59.306Z,103057.38
2023-02-11T03:50:53.904Z,103062.16
2023-02-11T03:51:49.725Z,103067.19
2023-02-11T03:52:41.945Z,103068.63
2023-02-11T03:53:33.890Z,103066.81
2023-02-11T03:54:30.862Z,103068.63
2023-02-11T03:55:25.803Z,103080.22
2023-02-11T03:56:23.872Z,103080.22
2023-02-11T03:57:15.459Z,103076.88
2023-02-11T03:58:08.295Z,103076.59
2023-02-11T03:59:00.113Z,103081.00
2023-02-11T03:59:59.111Z,103081.25
2023-02-11T04:00:50.704Z,103085.88
2023-02-11T04:01:42.258Z,103083.28
2023-02-11T04:02:36.297Z,103089.09
2023-02-11T04:03:27.838Z,103087.06
2023-02-11T04:04:19.311Z,103093.88
2023-02-11T04:05:14.949Z,103081.91
2023-02-11T04:06:07.279Z,103086.03
2023-02-11T04:06:58.750Z,103090.78
2023-02-11T04:07:50.447Z,103082.41
2023-02-11T04:08:41.942Z,103088.84
2023-02-11T04:09:33.396Z,103086.50
2023-02-11T04:10:25.139Z,103088.84
2023-02-11T04:11:16.677Z,103089.22
2023-02-11T04:12:08.396Z,103086.53
2023-02-11T04:12:59.942Z,103083.94
2023-02-11T04:13:51.415Z,103079.66
2023-02-11T04:14:43.203Z,103083.94
2023-02-11T04:15:34.925Z,103084.97
2023-02-11T04:16:26.537Z,103086.78
2023-02-11T04:17:18.857Z,103082.41
2023-02-11T04:18:10.535Z,103084.06
2023-02-11T04:19:02.010Z,103073.47
2023-02-11T04:19:53.586Z,103069.00
2023-02-11T04:20:45.095Z,103077.63
2023-02-11T04:21:36.520Z,103073.22
2023-02-11T04:22:27.982Z,103070.78
2023-02-11T04:23:19.424Z,103068.31
2023-02-11T04:24:10.901Z,103072.84
2023-02-11T04:25:02.802Z,103076.97
2023-02-11T04:25:54.264Z,103078.09
2023-02-11T04:26:45.801Z,103076.97
2023-02-11T04:27:37.350Z,103075.00
2023-02-11T04:28:29.592Z,103068.19
2023-02-11T04:29:21.234Z,103066.88
2023-02-11T04:30:13.622Z,103063.28
2023-02-11T04:31:05.519Z,103063.91
2023-02-11T04:31:57.156Z,103061.84
2023-02-11T04:32:48.988Z,103062.78
2023-02-11T04:33:40.693Z,103060.06
2023-02-11T04:34:32.489Z,103054.91
2023-02-11T04:35:24.022Z,103059.28
2023-02-11T04:36:15.514Z,103052.22
2023-02-11T04:37:07.440Z,103059.41
2023-02-11T04:37:58.947Z,103051.00
2023-02-11T04:38:50.669Z,103049.19
2023-02-11T04:39:42.089Z,103054.38
2023-02-11T04:40:34.049Z,103055.38
2023-02-11T04:41:25.791Z,103052.56
2023-02-11T04:42:17.264Z,103052.56
2023-02-11T04:43:09.008Z,103048.97
2023-02-11T04:44:00.766Z,103052.47
2023-02-11T04:44:52.497Z,103052.56
2023-02-11T04:45:44.172Z,103048.06
2023-02-11T04:46:35.780Z,103047.16
2023-02-11T04:47:27.446Z,103050.66
2023-02-11T04:48:19.153Z,103040.94
2023-02-11T04:49:15.481Z,103048.56
2023-02-11T04:50:07.022Z,103044.03
2023-02-11T04:50:58.508Z,103048.44
2023-02-11T04:51:50.005Z,103049.19
2023-02-11T04:52:42.461Z,103053.34
2023-02-11T04:53:34.007Z,103052.56
2023-02-11T04:54:25.726Z,103051.94
2023-02-11T04:55:17.517Z,103058.13
2023-02-11T04:56:09.036Z,103061.34
2023-02-11T04:57:01.148Z,103048.31
2023-02-11T04:57:52.654Z,103056.84
2023-02-11T04:58:44.148Z,103054.25
2023-02-11T04:59:35.651Z,103049.97
2023-02-11T05:00:27.126Z,103045.50
2023-02-11T05:01:18.687Z,103050.91
2023-02-11T05:02:10.180Z,103057.72
2023-02-11T05:03:01.887Z,103055.16
2023-02-11T05:03:53.461Z,103051.78
2023-02-11T05:04:45.390Z,103057.88
2023-02-11T05:05:41.526Z,103055.16
2023-02-11T05:06:34.105Z,103056.31
2023-02-11T05:07:25.546Z,103057.88
2023-02-11T05:08:16.988Z,103053.72
2023-02-11T05:09:12.343Z,103060.81
2023-02-11T05:10:04.969Z,103062.47
2023-02-11T05:10:56.599Z,103060.41
2023-02-11T05:11:48.179Z,103063.63
2023-02-11T05:12:39.802Z,103067.25
2023-02-11T05:13:31.661Z,103057.69
2023-02-11T05:14:23.246Z,103061.97
2023-02-11T05:15:15.179Z,103053.97
2023-02-11T05:16:06.733Z,103055.78
2023-02-11T05:16:58.200Z,103062.34
2023-02-11T05:17:49.708Z,103053.84
2023-02-11T05:18:42.921Z,103057.59
2023-02-11T05:19:34.390Z,103054.34
2023-02-11T05:20:25.869Z,103060.16
2023-02-11T05:21:19.380Z,103052.44
2023-02-11T05:22:11.189Z,103060.03
2023-02-11T05:23:02.683Z,103056.16
2023-02-11T05:23:54.345Z,103051.25
2023-02-11T05:24:45.802Z,103055.25
2023-02-11T05:25:37.607Z,103045.56
2023-02-11T05:26:29.098Z,103051.91
2023-02-11T05:27:20.608Z,103058.47
2023-02-11T05:28:12.106Z,103050.72
2023-02-11T05:29:03.915Z,103057.84
2023-02-11T05:29:55.387Z,103065.72
2023-02-11T05:30:46.987Z,103062.34
2023-02-11T05:31:38.737Z,103061.59
2023-02-11T05:32:30.442Z,103055.38
2023-02-11T05:33:22.257Z,103059.38
2023-02-11T05:34:13.709Z,103058.47
2023-02-11T05:35:05.564Z,103055.78
2023-02-11T05:36:08.681Z,103054.09
2023-02-11T05:37:00.556Z,103058.75
2023-02-11T05:37:52.295Z,103054.47
2023-02-11T05:38:43.884Z,103054.34
2023-02-11T05:39:35.628Z,103058.47
2023-02-11T05:40:27.114Z,103055.78
2023-02-11T05:41:19.448Z,103053.06
2023-02-11T05:42:11.025Z,103059.00
2023-02-11T05:43:02.685Z,103055.53
2023-02-11T05:43:54.167Z,103058.88
2023-02-11T05:44:45.790Z,103053.59
2023-02-11T05:45:37.278Z,103052.53
2023-02-11T05:46:28.854Z,103053.69
2023-02-11T05:47:20.623Z,103043.91
2023-02-11T05:48:12.275Z,103044.94
2023-02-11T05:49:04.344Z,103051.75
2023-02-11T05:49:55.822Z,103044.78
2023-02-11T05:50:47.548Z,103043.91
2023-02-11T05:51:39.000Z,103045.47
2023-02-11T05:52:30.769Z,103041.97
2023-02-11T05:53:22.541Z,103046.47
2023-02-11T05:54:14.473Z,103049.84
2023-02-11T05:55:06.231Z,103053.31
2023-02-11T05:55:57.760Z,103043.75
2023-02-11T05:56:49.370Z,103043.91
2023-02-11T05:57:41.033Z,103041.31
2023-02-11T05:58:32.698Z,103045.94
2023-02-11T05:59:24.174Z,103037.56
2023-02-11T06:00:16.079Z,103039.38
2023-02-11T06:01:07.832Z,103041.81
2023-02-11T06:01:59.310Z,103042.50
2023-02-11T06:02:51.046Z,103036.00
2023-02-11T06:03:42.856Z,103029.16
2023-02-11T06:04:35.321Z,103031.63
2023-02-11T06:05:27.014Z,103027.34
2023-02-11T06:06:18.896Z,103034.22
2023-02-11T06:07:10.432Z,103035.88
2023-02-11T06:08:01.949Z,103034.06
2023-02-11T06:08:53.703Z,103028.50
2023-02-11T06:09:45.590Z,103030.31
2023-02-11T06:10:37.113Z,103021.31
2023-02-11T06:11:28.600Z,103025.94
2023-02-11T06:12:20.035Z,103030.06
2023-02-11T06:13:11.481Z,103028.41
2023-02-11T06:14:03.200Z,103023.13
2023-02-11T06:14:54.682Z,103019.91
2023-02-11T06:15:56.247Z,103020.78
2023-02-11T06:16:47.868Z,103026.84
2023-02-11T06:17:39.360Z,103020.66
2023-02-11T06:18:32.305Z,103022.47
2023-02-11T06:19:23.850Z,103025.31
2023-02-11T06:20:15.499Z,103020.03
2023-02-11T06:21:08.739Z,103024.41
2023-02-11T06:22:00.204Z,103023.63
2023-02-11T06:22:51.671Z,103027.88
2023-02-11T06:23:43.581Z,103028.13
2023-02-11T06:24:58.487Z,103029.94
2023-02-11T06:25:46.581Z,103030.47
2023-02-11T06:26:38.146Z,103029.59
2023-02-11T06:27:30.313Z,103040.25
2023-02-11T06:28:21.970Z,103041.19
2023-02-11T06:29:14.151Z,103038.06
2023-02-11T06:30:07.114Z,103038.69
2023-02-11T06:31:04.438Z,103040.16
2023-02-11T06:31:56.291Z,103035.75
2023-02-11T06:32:48.029Z,103035.13
2023-02-11T06:33:39.767Z,103038.34
2023-02-11T06:34:31.591Z,103038.25
2023-02-11T06:35:23.135Z,103035.53
2023-02-11T06:36:18.759Z,103034.09
2023-02-11T06:37:10.262Z,103030.22
2023-02-11T06:38:01.915Z,103028.41
2023-02-11T06:38:53.695Z,103034.34
2023-02-11T06:39:45.400Z,103025.69
2023-02-11T06:40:37.060Z,103030.59
2023-02-11T06:41:28.766Z,103038.34
2023-02-11T06:42:20.420Z,103033.72
2023-02-11T06:43:11.843Z,103034.09
2023-02-11T06:44:04.028Z,103036.16
2023-02-11T06:44:55.540Z,103039.13
2023-02-11T06:45:52.900Z,103032.06
2023-02-11T06:46:44.744Z,103037.31
2023-02-11T06:47:37.505Z,103036.31
2023-02-11T06:48:29.234Z,103036.56
2023-02-11T06:49:20.727Z,103047.00
2023-02-11T06:50:14.765Z,103045.22
2023-02-11T06:51:12.965Z,103049.84
2023-02-11T06:52:04.514Z,103049.69
2023-02-11T06:52:55.971Z,103055.78
2023-02-11T06:53:47.522Z,103046.47
2023-02-11T06:54:39.067Z,103050.09
2023-02-11T06:55:30.572Z,103057.69
2023-02-11T06:56:24.526Z,103051.00
2023-02-11T06:57:16.093Z,103051.91
2023-02-11T06:58:07.667Z,103057.97
2023-02-11T06:58:59.424Z,103058.84
2023-02-11T06:59:51.475Z,103057.97
2023-02-11T07:00:43.336Z,103051.00
2023-02-11T07:01:34.841Z,103052.53
2023-02-11T07:02:26.714Z,103060.66
2023-02-11T07:03:18.296Z,103063.00
2023-02-11T07:04:10.588Z,103055.88
2023-02-11T07:05:02.026Z,103056.66
2023-02-11T07:05:53.551Z,103060.94
2023-02-11T07:06:45.169Z,103061.97
2023-02-11T07:07:37.088Z,103068.94
2023-02-11T07:08:29.508Z,103058.75
2023-02-11T07:09:20.968Z,103066.59
2023-02-11T07:10:13.284Z,103062.34
2023-02-11T07:11:13.581Z,103066.50
2023-02-11T07:12:05.118Z,103068.16
2023-02-11T07:12:58.789Z,103061.44
2023-02-11T07:13:52.759Z,103057.78
2023-02-11T07:14:44.388Z,103060.38
2023-02-11T07:15:37.288Z,103067.88
2023-02-11T07:16:29.055Z,103066.84
2023-02-11T07:17:20.596Z,103060.81
2023-02-11T07:18:14.532Z,103062.59
2023-02-11T07:19:06.145Z,103061.59
2023-02-11T07:19:57.870Z,103066.75
2023-02-11T07:20:49.357Z,103062.19
2023-02-11T07:21:41.080Z,103058.72
2023-02-11T07:22:34.838Z,103060.38
2023-02-11T07:23:26.274Z,103067.25
2023-02-11T07:24:18.780Z,103066.84
2023-02-11T07:25:10.420Z,103070.22
2023-02-11T07:26:06.132Z,103068.28
2023-02-11T07:26:57.719Z,103071.75
2023-02-11T07:27:50.048Z,103076.16
2023-02-11T07:28:42.489Z,103076.16
2023-02-11T07:29:33.978Z,103072.94
2023-02-11T07:30:25.636Z,103083.13
2023-02-11T07:31:20.420Z,103080.44
2023-02-11T07:32:11.961Z,103085.59
2023-02-11T07:33:03.714Z,103078.47
2023-02-11T07:33:59.409Z,103084.56
2023-02-11T07:34:50.975Z,103082.72
2023-02-11T07:35:42.826Z,103088.03
2023-02-11T07:36:34.788Z,103080.91
2023-02-11T07:37:26.362Z,103090.22
2023-02-11T07:38:17.796Z,103089.34
2023-02-11T07:39:09.617Z,103090.09
2023-02-11T07:40:01.052Z,103090.88
2023-02-11T07:40:52.836Z,103093.47
2023-02-11T07:41:47.687Z,103084.94
2023-02-11T07:42:41.018Z,103091.00
2023-02-11T07:43:33.443Z,103089.19
2023-02-11T07:44:25.186Z,103091.91
2023-02-11T07:45:17.363Z,103096.31
2023-02-11T07:46:27.183Z,103088.66
2023-02-11T07:47:18.731Z,103084.66
2023-02-11T07:48:10.175Z,103087.25
2023-02-11T07:49:02.659Z,103091.53
2023-02-11T07:49:56.549Z,103087.00
2023-02-11T07:50:48.261Z,103086.88
2023-02-11T07:51:39.765Z,103095.53
2023-02-11T07:52:31.601Z,103090.34
2023-02-11T07:53:23.082Z,103087.63
2023-02-11T07:54:14.752Z,103091.25
2023-02-11T07:55:06.404Z,103091.38
2023-02-11T07:55:57.878Z,103098.22
2023-02-11T07:56:49.503Z,103095.53
2023-02-11T07:57:41.432Z,103088.81
2023-02-11T07:58:33.560Z,103089.06
2023-02-11T07:59:25.174Z,103097.03
2023-02-11T08:00:19.992Z,103098.06
2023-02-11T08:01:16.877Z,103101.69
2023-02-11T08:02:09.544Z,103104.41
2023-02-11T08:03:01.122Z,103101.03
2023-02-11T08:03:53.025Z,103106.22
2023-02-11T08:04:46.983Z,103102.84
2023-02-11T08:05:39.135Z,103110.59
2023-02-11T08:06:34.299Z,103106.22
2023-02-11T08:07:26.145Z,103110.69
2023-02-11T08:08:17.885Z,103113.28
2023-02-11T08:09:15.625Z,103112.41
2023-02-11T08:10:07.662Z,103114.06
2023-02-11T08:11:00.022Z,103111.47
2023-02-11T08:11:51.505Z,103110.34
2023-02-11T08:12:42.948Z,103116.53
2023-02-11T08:13:35.199Z,103113.94
2023-02-11T08:14:27.214Z,103114.19
2023-02-11T08:15:18.633Z,103116.00
2023-02-11T08:16:27.952Z,103110.06
2023-02-11T08:17:19.703Z,103111.88
2023-02-11T08:18:11.152Z,103116.25
2023-02-11T08:19:11.513Z,103112.91
2023-02-11T08:20:05.356Z,103107.72
2023-02-11T08:20:57.080Z,103106.94
2023-02-11T08:21:48.714Z,103113.28
2023-02-11T08:22:40.439Z,103111.47
2023-02-11T08:23:31.889Z,103110.41
2023-02-11T08:24:23.933Z,103107.97
2023-02-11T08:25:15.508Z,103108.63
2023-02-11T08:26:11.096Z,103110.31
2023-02-11T08:27:02.551Z,103098.19
2023-02-11T08:27:54.083Z,103105.00
2023-02-11T08:28:47.620Z,103102.31
2023-02-11T08:29:39.026Z,103104.13
2023-02-11T08:30:30.517Z,103110.69
2023-02-11T08:31:26.122Z,103104.09
2023-02-11T08:32:17.771Z,103106.16
2023-02-11T08:33:09.325Z,103107.44
2023-02-11T08:34:02.219Z,103110.94
2023-02-11T08:34:54.919Z,103103.19
2023-02-11T08:35:46.591Z,103106.66
2023-02-11T08:36:39.764Z,103108.38
2023-02-11T08:37:33.061Z,103106.66
2023-02-11T08:38:24.700Z,103107.59
2023-02-11T08:39:21.461Z,103109.38
2023-02-11T08:40:13.156Z,103109.63
2023-02-11T08:41:05.699Z,103111.28
2023-02-11T08:41:57.261Z,103106.81
2023-02-11T08:42:48.795Z,103109.38
2023-02-11T08:43:41.863Z,103108.22
2023-02-11T08:44:33.392Z,103111.84
2023-02-11T08:45:24.968Z,103110.28
2023-02-11T08:46:19.828Z,103105.00
2023-02-11T08:47:11.558Z,103110.28
2023-02-11T08:48:03.127Z,103120.59
2023-02-11T08:48:54.582Z,103118.69
2023-02-11T08:49:47.478Z,103123.97
2023-02-11T08:50:40.120Z,103118.16
2023-02-11T08:51:31.684Z,103127.97
2023-02-11T08:52:23.435Z,103118.66
2023-02-11T08:53:14.998Z,103117.63
2023-02-11T08:54:09.624Z,103129.63
2023-02-11T08:55:01.153Z,103124.22
2023-02-11T08:55:54.970Z,103125.13
2023-02-11T08:56:51.347Z,103124.34
2023-02-11T08:57:43.057Z,103124.34
2023-02-11T08:58:34.503Z,103128.06
2023-02-11T08:59:26.112Z,103130.00
2023-02-11T09:00:18.617Z,103126.50
2023-02-11T09:01:24.982Z,103128.84
2023-02-11T09:02:16.653Z,103133.22
2023-02-11T09:03:08.103Z,103137.63
2023-02-11T09:03:59.832Z,103138.53
2023-02-11T09:04:51.367Z,103142.00
2023-02-11T09:05:45.170Z,103151.56
2023-02-11T09:06:36.760Z,103149.59
2023-02-11T09:07:28.988Z,103150.25
2023-02-11T09:08:21.120Z,103154.38
2023-02-11T09:09:14.900Z,103159.94
2023-02-11T09:10:06.863Z,103155.56
2023-02-11T09:10:58.308Z,103157.09
2023-02-11T09:11:50.085Z,103160.47
2023-02-11T09:12:41.666Z,103155.06
2023-02-11T09:13:33.937Z,103155.41
2023-02-11T09:14:25.612Z,103157.25
2023-02-11T09:15:17.105Z,103162.53
2023-02-11T09:16:16.580Z,103155.81
2023-02-11T09:17:08.080Z,103158.28
2023-02-11T09:17:59.802Z,103162.41
2023-02-11T09:18:52.282Z,103158.91
2023-02-11T09:19:43.776Z,103162.41
2023-02-11T09:20:35.467Z,103158.28
2023-02-11T09:21:28.353Z,103154.91
2023-02-11T09:22:19.782Z,103160.09
2023-02-11T09:23:11.389Z,103161.88
2023-02-11T09:24:03.411Z,103158.53
2023-02-11T09:24:54.916Z,103156.72
2023-02-11T09:25:46.430Z,103165.75
2023-02-11T09:26:38.214Z,103158.09
2023-02-11T09:27:29.737Z,103164.03
2023-02-11T09:28:21.420Z,103167.28
2023-02-11T09:29:13.392Z,103162.00
2023-02-11T09:30:05.479Z,103160.97
2023-02-11T09:30:56.979Z,103158.38
2023-02-11T09:31:49.764Z,103160.97
2023-02-11T09:32:41.572Z,103157.25
2023-02-11T09:33:33.414Z,103166.03
2023-02-11T09:34:24.880Z,103163.78
2023-02-11T09:35:16.334Z,103165.34
2023-02-11T09:36:08.716Z,103165.50
2023-02-11T09:37:00.264Z,103163.78
2023-02-11T09:37:51.988Z,103165.25
2023-02-11T09:38:44.771Z,103162.66
2023-02-11T09:39:36.488Z,103163.16
2023-02-11T09:40:28.507Z,103163.31
2023-02-11T09:41:23.111Z,103164.97
2023-02-11T09:42:39.373Z,103165.06
2023-02-11T09:43:41.842Z,103163.00
2023-02-11T09:44:36.388Z,103156.97
2023-02-11T09:45:30.893Z,103163.41
2023-02-11T09:46:25.793Z,103157.84
2023-02-11T09:47:36.637Z,103160.03
2023-02-11T09:48:42.408Z,103170.13
2023-02-11T09:49:43.081Z,103171.69
2023-02-11T09:50:39.221Z,103174.91
2023-02-11T09:51:46.352Z,103174.25
2023-02-11T09:52:51.672Z,103175.03
2023-02-11T09:53:43.604Z,103173.34
2023-02-11T09:54:51.900Z,103174.50
2023-02-11T09:55:47.791Z,103169.34
2023-02-11T09:56:39.362Z,103176.44
2023-02-11T09:57:36.223Z,103178.13
2023-02-11T09:58:36.932Z,103180.28
2023-02-11T09:59:28.491Z,103182.75
2023-02-11T10:00:32.254Z,103181.97
2023-02-11T10:01:40.055Z,103177.94
2023-02-11T10:02:50.879Z,103172.78
2023-02-11T10:04:00.532Z,103174.22
2023-02-11T10:05:35.133Z,103181.31
2023-02-11T10:06:35.450Z,103174.72
2023-02-11T10:08:09.859Z,103176.13
2023-02-11T10:09:10.131Z,103185.28
2023-02-11T10:10:11.989Z,103185.69
2023-02-11T10:11:26.019Z,103193.13
2023-02-11T10:12:50.243Z,103188.84
2023-02-11T10:14:04.628Z,103197.28
2023-02-11T10:15:09.614Z,103196.59
2023-02-11T10:16:15.095Z,103194.25
2023-02-11T10:17:09.873Z,103196.22
2023-02-11T10:18:13.727Z,103199.69
2023-02-11T10:19:39.421Z,103198.16
2023-02-11T10:20:39.128Z,103194.50
2023-02-11T10:21:50.658Z,103201.00
2023-02-11T10:22:49.367Z,103199.19
2023-02-11T10:23:46.781Z,103203.59
2023-02-11T10:24:41.335Z,103200.66
2023-02-11T10:25:40.463Z,103199.34
2023-02-11T10:26:36.125Z,103195.72
2023-02-11T10:27:37.149Z,103197.03
2023-02-11T10:28:33.452Z,103193.00